createdAt,value
2023-04-20T00:00:32.547Z,5.60
2023-04-20T00:04:39.274Z,3.80
2023-04-20T00:08:42.067Z,4.00
2023-04-20T00:12:46.071Z,4.00
2023-04-20T00:16:49.545Z,4.67
2023-04-20T00:20:52.511Z,4.27
2023-04-20T00:24:55.388Z,5.13
2023-04-20T00:28:59.445Z,6.03
2023-04-20T00:33:04.638Z,3.63
2023-04-20T00:37:07.347Z,3.63
2023-04-20T00:41:10.034Z,4.10
2023-04-20T00:45:14.276Z,5.00
2023-04-20T00:49:18.916Z,3.60
2023-04-20T00:53:24.071Z,4.57
2023-04-20T00:57:27.689Z,4.30
2023-04-20T01:01:31.928Z,3.67
2023-04-20T01:05:34.767Z,4.13
2023-04-20T01:09:38.701Z,3.80
2023-04-20T01:13:41.398Z,4.07
2023-04-20T01:17:45.655Z,4.20
2023-04-20T01:21:48.564Z,4.90
2023-04-20T01:25:53.831Z,4.13
2023-04-20T01:29:56.576Z,6.53
2023-04-20T01:33:59.499Z,4.27
2023-04-20T01:38:02.403Z,5.77
2023-04-20T01:42:09.714Z,5.90
2023-04-20T01:46:12.847Z,8.37
2023-04-20T01:50:15.792Z,4.57
2023-04-20T01:54:18.713Z,5.50
2023-04-20T01:58:22.694Z,5.50
2023-04-20T02:02:25.911Z,4.70
2023-04-20T02:06:28.717Z,4.27
2023-04-20T02:10:32.738Z,6.33
2023-04-20T02:14:36.917Z,5.10
2023-04-20T02:18:39.618Z,6.50
2023-04-20T02:22:44.133Z,5.70
2023-04-20T02:26:46.795Z,5.63
2023-04-20T02:30:51.801Z,4.67
2023-04-20T02:34:54.482Z,5.27
2023-04-20T02:38:57.126Z,5.37
2023-04-20T02:42:59.794Z,5.07
2023-04-20T02:47:04.120Z,4.63
2023-04-20T02:51:06.881Z,5.93
2023-04-20T02:55:09.810Z,6.50
2023-04-20T02:59:12.465Z,5.03
2023-04-20T03:03:20.934Z,5.77
2023-04-20T03:07:23.962Z,7.30
2023-04-20T03:11:26.911Z,5.63
2023-04-20T03:15:29.602Z,5.40
2023-04-20T03:19:34.074Z,6.93
2023-04-20T03:23:36.971Z,5.37
2023-04-20T03:27:39.855Z,7.43
2023-04-20T03:31:42.877Z,6.70
2023-04-20T03:35:47.182Z,5.67
2023-04-20T03:39:49.874Z,6.93
2023-04-20T03:43:52.786Z,6.50
2023-04-20T03:47:55.462Z,5.33
2023-04-20T03:51:59.715Z,5.63
2023-04-20T03:56:02.446Z,6.10
2023-04-20T04:00:05.924Z,5.73
2023-04-20T04:04:09.259Z,6.67
2023-04-20T04:08:13.682Z,6.97
2023-04-20T04:12:17.929Z,11.87
2023-04-20T04:16:20.755Z,12.27
2023-04-20T04:20:23.521Z,10.50
2023-04-20T04:24:28.027Z,10.33
2023-04-20T04:28:31.219Z,10.77
2023-04-20T04:32:34.564Z,10.90
2023-04-20T04:36:37.588Z,8.60
2023-04-20T04:40:45.413Z,9.60
2023-04-20T04:44:48.403Z,8.20
2023-04-20T04:48:51.738Z,9.50
2023-04-20T04:52:54.500Z,9.20
2023-04-20T04:56:59.262Z,8.20
2023-04-20T05:01:01.968Z,9.40
2023-04-20T05:05:05.847Z,10.70
2023-04-20T05:09:09.788Z,12.47
2023-04-20T05:13:14.409Z,7.00
2023-04-20T05:17:17.240Z,6.53
2023-04-20T05:21:21.961Z,7.03
2023-04-20T05:25:26.016Z,7.13
2023-04-20T05:29:30.375Z,9.03
2023-04-20T05:33:33.290Z,7.03
2023-04-20T05:37:38.574Z,6.60
2023-04-20T05:41:41.313Z,7.33
2023-04-20T05:45:45.673Z,6.80
2023-04-20T05:49:48.346Z,7.27
2023-04-20T05:53:52.725Z,6.63
2023-04-20T05:57:55.730Z,7.53
2023-04-20T06:02:02.427Z,6.10
2023-04-20T06:06:05.784Z,6.67
2023-04-20T06:10:09.321Z,6.70
2023-04-20T06:14:13.922Z,6.60
2023-04-20T06:18:18.340Z,6.80
2023-04-20T06:22:21.412Z,6.77
2023-04-20T06:26:24.838Z,6.23
2023-04-20T06:30:27.603Z,6.70
2023-04-20T06:34:34.227Z,6.27
2023-04-20T06:38:37.302Z,6.17
2023-04-20T06:42:40.056Z,6.70
2023-04-20T06:46:42.869Z,6.03
2023-04-20T06:50:48.827Z,6.10
2023-04-20T06:54:51.558Z,6.00
2023-04-20T06:58:54.233Z,5.70
2023-04-20T07:02:57.382Z,6.33
2023-04-20T07:07:01.805Z,5.83
2023-04-20T07:11:04.486Z,6.40
2023-04-20T07:15:08.664Z,6.33
2023-04-20T07:19:11.636Z,6.60
2023-04-20T07:23:15.761Z,5.97
2023-04-20T07:27:18.751Z,5.57
2023-04-20T07:31:21.650Z,5.07
2023-04-20T07:35:24.516Z,5.43
2023-04-20T07:39:30.252Z,5.37
2023-04-20T07:43:32.995Z,5.00
2023-04-20T07:47:36.454Z,5.23
2023-04-20T07:51:39.118Z,4.77
2023-04-20T07:55:43.873Z,4.27
2023-04-20T07:59:46.834Z,4.17
2023-04-20T08:03:49.879Z,4.43
2023-04-20T08:07:52.840Z,4.63
2023-04-20T08:11:57.643Z,4.60
2023-04-20T08:16:00.666Z,4.47
2023-04-20T08:20:06.772Z,4.57
2023-04-20T08:24:10.190Z,4.10
2023-04-20T08:28:24.123Z,5.40
2023-04-20T08:32:32.967Z,4.87
2023-04-20T08:36:36.181Z,8.10
2023-04-20T08:40:39.625Z,4.40
2023-04-20T08:44:44.277Z,4.37
2023-04-20T08:48:48.530Z,5.20
2023-04-20T08:52:51.288Z,4.90
2023-04-20T08:56:54.077Z,5.43
2023-04-20T09:01:00.567Z,6.67
2023-04-20T09:05:04.124Z,6.93
2023-04-20T09:09:11.316Z,4.30
2023-04-20T09:13:22.789Z,5.20
2023-04-20T09:17:34.311Z,4.90
2023-04-20T09:21:37.096Z,5.30
2023-04-20T09:25:41.100Z,4.97
2023-04-20T09:29:44.197Z,4.63
2023-04-20T09:33:57.000Z,6.13
2023-04-20T09:37:59.678Z,4.60
2023-04-20T09:42:05.764Z,6.00
2023-04-20T09:46:08.929Z,4.77
2023-04-20T09:50:24.531Z,5.20
2023-04-20T09:54:31.442Z,6.77
2023-04-20T09:58:35.405Z,4.80
2023-04-20T10:02:38.533Z,5.07
2023-04-20T10:06:57.850Z,5.43
2023-04-20T10:11:00.574Z,6.50
2023-04-20T10:15:04.484Z,5.00
2023-04-20T10:19:10.239Z,5.43
2023-04-20T10:23:16.165Z,6.33
2023-04-20T10:27:19.387Z,6.23
2023-04-20T10:31:22.537Z,5.77
2023-04-20T10:35:27.243Z,5.50
2023-04-20T10:39:34.558Z,5.63
2023-04-20T10:43:39.052Z,6.37
2023-04-20T10:47:42.245Z,5.63
2023-04-20T10:51:49.643Z,7.00
2023-04-20T10:56:03.250Z,6.00
2023-04-20T11:00:17.089Z,8.03
2023-04-20T11:04:19.755Z,5.83
2023-04-20T11:08:22.740Z,6.90
2023-04-20T11:12:26.855Z,6.53
2023-04-20T11:16:40.848Z,7.57
2023-04-20T11:20:54.151Z,6.40
2023-04-20T11:25:05.466Z,9.40
2023-04-20T11:29:09.648Z,6.13
2023-04-20T11:33:13.992Z,6.13
2023-04-20T11:37:17.742Z,5.70
2023-04-20T11:41:20.483Z,6.00
2023-04-20T11:45:24.654Z,5.83
2023-04-20T11:49:29.450Z,5.70
2023-04-20T11:53:32.204Z,5.50
2023-04-20T11:57:35.173Z,4.87
2023-04-20T12:01:39.660Z,4.57
2023-04-20T12:05:43.286Z,4.87
2023-04-20T12:09:46.384Z,4.83
2023-04-20T12:13:49.120Z,4.83
2023-04-20T12:17:54.031Z,4.73
2023-04-20T12:21:58.533Z,4.93
2023-04-20T12:26:01.301Z,5.33
2023-04-20T12:30:04.201Z,5.03
2023-04-20T12:34:08.276Z,5.10
2023-04-20T12:38:13.295Z,5.90
2023-04-20T12:42:17.218Z,5.50
2023-04-20T12:46:20.155Z,5.47
2023-04-20T12:50:24.467Z,5.97
2023-04-20T12:54:27.406Z,5.70
2023-04-20T12:58:30.732Z,5.40
2023-04-20T13:02:33.865Z,5.23
2023-04-20T13:06:38.168Z,5.10
2023-04-20T13:10:43.051Z,4.97
2023-04-20T13:14:45.856Z,6.57
2023-04-20T13:18:48.644Z,4.67
2023-04-20T13:22:57.798Z,4.63
2023-04-20T13:27:01.748Z,4.80
2023-04-20T13:31:04.967Z,4.97
2023-04-20T13:35:12.642Z,5.20
2023-04-20T13:39:20.908Z,5.60
2023-04-20T13:43:23.637Z,5.50
2023-04-20T13:47:26.785Z,5.23
2023-04-20T13:51:29.738Z,6.30
2023-04-20T13:55:33.808Z,5.67
2023-04-20T13:59:36.907Z,5.60
2023-04-20T14:03:39.670Z,6.00
2023-04-20T14:07:44.468Z,6.50
2023-04-20T14:11:50.779Z,5.60
2023-04-20T14:15:56.192Z,6.23
2023-04-20T14:20:04.045Z,6.50
2023-04-20T14:24:07.474Z,5.97
2023-04-20T14:28:11.802Z,6.70
2023-04-20T14:32:14.768Z,8.47
2023-04-20T14:36:19.625Z,6.77
2023-04-20T14:40:25.790Z,6.53
2023-04-20T14:44:30.139Z,7.43
2023-04-20T14:48:32.791Z,7.63
2023-04-20T14:52:35.838Z,7.50
2023-04-20T14:56:38.604Z,6.40
2023-04-20T15:00:43.010Z,7.40
2023-04-20T15:04:46.472Z,8.00
2023-04-20T15:08:49.622Z,7.33
2023-04-20T15:12:52.548Z,7.47
2023-04-20T15:16:57.889Z,8.20
2023-04-20T15:21:00.626Z,8.47
2023-04-20T15:25:03.531Z,8.77
2023-04-20T15:29:06.531Z,6.70
2023-04-20T15:33:11.435Z,7.50
2023-04-20T15:37:14.479Z,7.27
2023-04-20T15:41:18.497Z,6.37
2023-04-20T15:45:21.261Z,7.27
2023-04-20T15:49:25.358Z,6.87
2023-04-20T15:53:28.181Z,7.87
2023-04-20T15:57:33.120Z,6.43
2023-04-20T16:01:35.934Z,7.50
2023-04-20T16:05:40.124Z,6.27
2023-04-20T16:09:43.067Z,7.13
2023-04-20T16:13:46.068Z,7.40
2023-04-20T16:17:49.091Z,9.37
2023-04-20T16:21:53.235Z,7.53
2023-04-20T16:25:57.482Z,7.87
2023-04-20T16:30:00.319Z,6.33
2023-04-20T16:34:03.410Z,6.60
2023-04-20T16:38:10.187Z,6.80
2023-04-20T16:42:13.514Z,6.93
2023-04-20T16:46:18.986Z,7.17
2023-04-20T16:50:21.849Z,7.47
2023-04-20T16:54:26.829Z,9.90
2023-04-20T16:58:29.767Z,7.73
2023-04-20T17:02:34.395Z,9.37
2023-04-20T17:06:37.261Z,9.00
2023-04-20T17:10:41.352Z,8.63
2023-04-20T17:14:44.031Z,10.10
2023-04-20T17:18:46.995Z,8.77
2023-04-20T17:22:49.655Z,9.73
2023-04-20T17:26:53.942Z,10.00
2023-04-20T17:30:56.810Z,11.87
2023-04-20T17:34:59.595Z,8.40
2023-04-20T17:39:02.313Z,8.20
2023-04-20T17:43:06.450Z,14.80
2023-04-20T17:47:10.058Z,10.00
2023-04-20T17:51:14.087Z,11.13
2023-04-20T17:55:16.792Z,11.80
2023-04-20T17:59:20.817Z,10.50
2023-04-20T18:03:23.529Z,14.83
2023-04-20T18:07:26.398Z,13.63
2023-04-20T18:11:29.119Z,16.03
2023-04-20T18:15:33.421Z,11.77
2023-04-20T18:19:37.246Z,10.90
2023-04-20T18:23:40.372Z,11.07
2023-04-20T18:27:43.206Z,10.73
2023-04-20T18:31:47.492Z,10.80
2023-04-20T18:35:50.307Z,11.43
2023-04-20T18:39:52.990Z,12.43
2023-04-20T18:43:57.442Z,14.33
2023-04-20T18:48:01.826Z,11.00
2023-04-20T18:52:04.897Z,31.77
2023-04-20T18:56:10.205Z,12.90
2023-04-20T19:00:14.198Z,12.40
2023-04-20T19:04:18.987Z,11.30
2023-04-20T19:08:22.077Z,12.97
2023-04-20T19:12:24.741Z,11.93
2023-04-20T19:16:30.359Z,12.47
2023-04-20T19:20:34.514Z,13.20
2023-04-20T19:24:37.244Z,13.90
2023-04-20T19:28:40.222Z,13.47
2023-04-20T19:32:42.971Z,16.07
2023-04-20T19:36:47.137Z,14.00
2023-04-20T19:40:50.012Z,11.90
2023-04-20T19:44:53.679Z,12.60
2023-04-20T19:48:56.673Z,12.40
2023-04-20T19:53:00.861Z,13.00
2023-04-20T19:57:03.824Z,12.73
2023-04-20T20:01:06.937Z,12.90
2023-04-20T20:05:09.897Z,12.60
2023-04-20T20:09:14.477Z,13.17
2023-04-20T20:13:17.151Z,13.57
2023-04-20T20:17:20.209Z,14.17
2023-04-20T20:21:22.929Z,13.30
2023-04-20T20:25:27.224Z,14.23
2023-04-20T20:29:29.906Z,14.37
2023-04-20T20:33:32.586Z,15.57
2023-04-20T20:37:35.944Z,16.67
2023-04-20T20:41:42.763Z,15.63
2023-04-20T20:45:47.653Z,14.67
2023-04-20T20:49:50.587Z,15.93
2023-04-20T20:53:53.298Z,15.57
2023-04-20T20:57:57.684Z,16.07
2023-04-20T21:02:00.803Z,17.27
2023-04-20T21:06:03.570Z,14.83
2023-04-20T21:10:07.282Z,17.43
2023-04-20T21:14:11.361Z,19.23
2023-04-20T21:18:16.122Z,18.20
2023-04-20T21:22:20.115Z,16.97
2023-04-20T21:26:22.860Z,17.53
2023-04-20T21:30:28.238Z,16.27
2023-04-20T21:34:31.017Z,18.67
2023-04-20T21:38:33.707Z,15.80
2023-04-20T21:42:36.509Z,22.60
2023-04-20T21:46:41.299Z,18.33
2023-04-20T21:50:44.187Z,17.47
2023-04-20T21:54:47.275Z,16.13
2023-04-20T21:58:50.004Z,17.67
2023-04-20T22:02:54.380Z,16.87
2023-04-20T22:06:57.506Z,16.37
2023-04-20T22:11:00.506Z,16.57
2023-04-20T22:15:03.461Z,16.63
2023-04-20T22:19:07.672Z,15.77
2023-04-20T22:23:10.543Z,17.40
2023-04-20T22:27:13.579Z,17.17
2023-04-20T22:31:16.275Z,18.27
2023-04-20T22:35:20.633Z,20.07
2023-04-20T22:39:23.376Z,20.67
2023-04-20T22:43:26.320Z,17.47
2023-04-20T22:47:29.141Z,18.70
2023-04-20T22:51:33.193Z,22.00
2023-04-20T22:55:38.759Z,20.53
2023-04-20T22:59:41.519Z,20.10
2023-04-20T23:03:44.499Z,20.87
2023-04-20T23:07:48.712Z,19.67
2023-04-20T23:11:53.737Z,21.60
2023-04-20T23:15:56.778Z,22.33
2023-04-20T23:19:59.470Z,23.43
2023-04-20T23:24:06.380Z,19.07
2023-04-20T23:28:09.451Z,18.40
2023-04-20T23:32:12.529Z,16.33
2023-04-20T23:36:15.334Z,16.40
2023-04-20T23:40:19.481Z,17.30
2023-04-20T23:44:22.169Z,17.17
2023-04-20T23:48:24.856Z,17.87
2023-04-20T23:52:27.853Z,18.00
2023-04-20T23:56:31.906Z,18.47
